Time;durP1;ratioP1;P1;durP2;ratioP2;P2;SDS_P1;SDS_P2;PMS_P1;PMS_P2;Temp;Humidity;BMP_temperature;BMP_pressure;BME280_temperature;BME280_humidity;BME280_pressure;Samples;Min_cycle;Max_cycle;Signal;HPM_P1;HPM_P2
2023/12/21 00:01:13;;;;;;;;;;;9.20;99.90;;;;;;5094780;27;21932;-79
2023/12/21 00:03:39;;;;;;;;;;;9.20;99.90;;;;;;5118319;27;19972;-80
2023/12/21 00:06:05;;;;;;;;;;;9.20;99.90;;;;;;5130114;27;19923;-79
2023/12/21 00:08:31;;;;;;;;;;;9.20;99.90;;;;;;5114177;27;20422;-80
2023/12/21 00:10:58;;;;;;;;;;;9.20;99.90;;;;;;5112546;27;19927;-78
2023/12/21 00:13:26;;;;;;;;;;;9.20;99.90;;;;;;5113426;27;19975;-79
2023/12/21 00:15:52;;;;;;;;;;;9.30;99.90;;;;;;5096801;27;19971;-79
2023/12/21 00:18:17;;;;;;;;;;;9.30;99.90;;;;;;5102521;27;19927;-79
2023/12/21 00:20:43;;;;;;;;;;;9.30;99.90;;;;;;5117354;27;20008;-80
2023/12/21 00:23:09;;;;;;;;;;;9.30;99.90;;;;;;5108745;27;20659;-79
2023/12/21 00:25:34;;;;;;;;;;;9.30;99.90;;;;;;5116361;27;19934;-79
2023/12/21 00:28:00;;;;;;;;;;;9.30;99.90;;;;;;5100340;27;20013;-79
2023/12/21 00:30:26;;;;;;;;;;;9.30;99.90;;;;;;5125135;27;19935;-79
2023/12/21 00:32:53;;;;;;;;;;;9.30;99.90;;;;;;5116800;27;19938;-79
2023/12/21 00:35:18;;;;;;;;;;;9.30;99.90;;;;;;5081745;27;19927;-79
2023/12/21 00:37:44;;;;;;;;;;;9.30;99.90;;;;;;5110346;27;19933;-78
2023/12/21 00:40:10;;;;;;;;;;;9.30;99.90;;;;;;5109977;27;20032;-79
2023/12/21 00:42:38;;;;;;;;;;;9.30;99.90;;;;;;5116063;27;20381;-77
2023/12/21 00:45:04;;;;;;;;;;;9.30;99.90;;;;;;5097238;27;19927;-79
2023/12/21 00:47:31;;;;;;;;;;;9.30;99.90;;;;;;5118149;27;19988;-79
2023/12/21 00:49:57;;;;;;;;;;;9.30;99.90;;;;;;5097497;27;19927;-79
2023/12/21 00:52:23;;;;;;;;;;;9.30;99.90;;;;;;5117652;27;19935;-79
2023/12/21 00:54:49;;;;;;;;;;;9.30;99.90;;;;;;5117926;27;20664;-78
2023/12/21 00:57:14;;;;;;;;;;;9.30;99.90;;;;;;5099856;27;20259;-78
2023/12/21 00:59:40;;;;;;;;;;;9.30;99.90;;;;;;5103970;27;19968;-79
2023/12/21 01:02:06;;;;;;;;;;;9.30;99.90;;;;;;5114091;27;19923;-79
2023/12/21 01:04:31;;;;;;;;;;;9.30;99.90;;;;;;5133533;27;20306;-78
2023/12/21 01:06:57;;;;;;;;;;;9.30;99.90;;;;;;5097668;27;19938;-81
2023/12/21 01:09:23;;;;;;;;;;;9.30;99.90;;;;;;5133224;27;19931;-79
2023/12/21 01:11:48;;;;;;;;;;;9.30;99.90;;;;;;5100201;27;19938;-79
2023/12/21 01:14:14;;;;;;;;;;;9.20;99.90;;;;;;5138103;27;19923;-79
2023/12/21 01:16:40;;;;;;;;;;;9.20;99.90;;;;;;5109732;27;19931;-80
2023/12/21 01:19:06;;;;;;;;;;;9.20;99.90;;;;;;5111616;27;19927;-79
2023/12/21 01:21:32;;;;;;;;;;;9.20;99.90;;;;;;5098072;27;19927;-79
2023/12/21 01:23:58;;;;;;;;;;;9.20;99.90;;;;;;5098498;27;20200;-79
2023/12/21 01:26:23;;;;;;;;;;;9.20;99.90;;;;;;5120377;27;19956;-79
2023/12/21 01:28:49;;;;;;;;;;;9.20;99.90;;;;;;5096180;27;20288;-78
2023/12/21 01:31:15;;;;;;;;;;;9.20;99.90;;;;;;5133699;27;19980;-79
2023/12/21 01:33:40;;;;;;;;;;;9.20;99.90;;;;;;5103928;27;19927;-80
2023/12/21 01:36:09;;;;;;;;;;;9.20;99.90;;;;;;5114523;27;19923;-77
2023/12/21 01:38:34;;;;;;;;;;;9.20;99.90;;;;;;5099573;27;19938;-79
2023/12/21 01:41:00;;;;;;;;;;;9.20;99.90;;;;;;5129987;27;19931;-79
2023/12/21 01:43:25;;;;;;;;;;;9.20;99.90;;;;;;5111673;27;20386;-78
2023/12/21 01:45:52;;;;;;;;;;;9.20;99.90;;;;;;5101619;27;19923;-79
2023/12/21 01:48:18;;;;;;;;;;;9.20;99.90;;;;;;5106963;27;19927;-79
2023/12/21 01:50:44;;;;;;;;;;;9.20;99.90;;;;;;5113522;27;19937;-78
2023/12/21 01:53:11;;;;;;;;;;;9.20;99.90;;;;;;5111329;27;19938;-79
2023/12/21 01:55:38;;;;;;;;;;;9.20;99.90;;;;;;5096613;27;21842;-79
2023/12/21 01:58:04;;;;;;;;;;;9.20;99.90;;;;;;5113118;27;20436;-78
2023/12/21 02:00:31;;;;;;;;;;;9.20;99.90;;;;;;5096503;27;19931;-80
2023/12/21 02:02:56;;;;;;;;;;;9.20;99.90;;;;;;5104657;27;20365;-80
2023/12/21 02:05:22;;;;;;;;;;;9.20;99.90;;;;;;5115085;27;19934;-79
2023/12/21 02:07:47;;;;;;;;;;;9.20;99.90;;;;;;5113653;27;19971;-79
2023/12/21 02:10:13;;;;;;;;;;;9.20;99.90;;;;;;5100501;27;19927;-77
2023/12/21 02:12:39;;;;;;;;;;;9.20;99.90;;;;;;5103291;27;20115;-78
2023/12/21 02:15:06;;;;;;;;;;;9.20;99.90;;;;;;5124404;27;19928;-79
2023/12/21 02:17:32;;;;;;;;;;;9.20;99.90;;;;;;5107842;27;19928;-79
2023/12/21 02:19:58;;;;;;;;;;;9.20;99.90;;;;;;5117851;27;19977;-79
2023/12/21 02:22:26;;;;;;;;;;;9.20;99.90;;;;;;5116869;27;20027;-80
2023/12/21 02:24:52;;;;;;;;;;;9.20;99.90;;;;;;5120077;27;20014;-79
2023/12/21 02:27:17;;;;;;;;;;;9.20;99.90;;;;;;5106136;27;20366;-80
2023/12/21 02:29:43;;;;;;;;;;;9.20;99.90;;;;;;5100548;27;20460;-79
2023/12/21 02:32:08;;;;;;;;;;;9.20;99.90;;;;;;5129719;27;19931;-79
2023/12/21 02:34:34;;;;;;;;;;;9.20;99.90;;;;;;5115685;27;19931;-79
2023/12/21 02:37:00;;;;;;;;;;;9.20;99.90;;;;;;5098076;27;20042;-80
2023/12/21 02:39:25;;;;;;;;;;;9.20;99.90;;;;;;5103440;27;19934;-79
2023/12/21 02:41:54;;;;;;;;;;;9.20;99.90;;;;;;5112431;27;19984;-79
2023/12/21 02:44:20;;;;;;;;;;;10.50;99.90;;;;;;5122248;27;19966;-80
2023/12/21 02:46:45;;;;;;;;;;;9.20;99.90;;;;;;5134783;27;19970;-79
2023/12/21 02:49:11;;;;;;;;;;;9.20;99.90;;;;;;5118775;27;20022;-79
2023/12/21 02:51:37;;;;;;;;;;;9.20;99.90;;;;;;5085252;27;19938;-79
2023/12/21 02:54:02;;;;;;;;;;;9.20;99.90;;;;;;5115237;27;19952;-79
2023/12/21 02:56:28;;;;;;;;;;;9.20;99.90;;;;;;5115966;27;20342;-79
2023/12/21 02:58:53;;;;;;;;;;;9.20;99.90;;;;;;5115726;27;20052;-79
2023/12/21 03:01:19;;;;;;;;;;;9.20;99.90;;;;;;5103026;27;20487;-79
2023/12/21 03:03:45;;;;;;;;;;;9.20;99.90;;;;;;5089083;27;19934;-79
2023/12/21 03:06:10;;;;;;;;;;;9.20;99.90;;;;;;5113102;27;19938;-79
2023/12/21 03:08:36;;;;;;;;;;;9.20;99.90;;;;;;5105078;27;19994;-79
2023/12/21 03:11:02;;;;;;;;;;;9.20;99.90;;;;;;5123284;27;20034;-79
2023/12/21 03:13:27;;;;;;;;;;;9.20;99.90;;;;;;5114660;27;19934;-78
2023/12/21 03:15:53;;;;;;;;;;;9.20;99.90;;;;;;5117426;27;19942;-79
2023/12/21 03:18:19;;;;;;;;;;;9.20;99.90;;;;;;5111047;27;20026;-79
2023/12/21 03:20:44;;;;;;;;;;;9.30;99.90;;;;;;5115896;27;19950;-79
2023/12/21 03:23:10;;;;;;;;;;;9.30;99.90;;;;;;5130185;27;19927;-79
2023/12/21 03:25:36;;;;;;;;;;;9.30;99.90;;;;;;5101952;27;20709;-79
2023/12/21 03:28:05;;;;;;;;;;;9.30;99.90;;;;;;5116308;27;19927;-79
2023/12/21 03:30:31;;;;;;;;;;;9.30;99.90;;;;;;5116893;27;19927;-78
2023/12/21 03:32:57;;;;;;;;;;;9.40;99.90;;;;;;5101777;27;19934;-78
2023/12/21 03:35:22;;;;;;;;;;;9.40;99.90;;;;;;5113147;27;20402;-79
2023/12/21 03:37:48;;;;;;;;;;;10.30;99.90;;;;;;5103473;27;20465;-79
2023/12/21 03:40:13;;;;;;;;;;;9.40;99.90;;;;;;5098851;27;19971;-78
2023/12/21 03:42:39;;;;;;;;;;;9.40;99.90;;;;;;5114426;27;20010;-79
2023/12/21 03:45:05;;;;;;;;;;;9.40;99.90;;;;;;5094033;27;19955;-79
2023/12/21 03:47:30;;;;;;;;;;;9.40;99.90;;;;;;5098063;27;20696;-79
2023/12/21 03:49:56;;;;;;;;;;;9.40;99.90;;;;;;5110340;27;19927;-80
2023/12/21 03:52:22;;;;;;;;;;;9.40;99.90;;;;;;5128973;27;20345;-79
2023/12/21 03:54:47;;;;;;;;;;;9.30;99.90;;;;;;5108305;27;19975;-79
2023/12/21 03:57:13;;;;;;;;;;;9.30;99.90;;;;;;5093144;27;19927;-80
2023/12/21 03:59:40;;;;;;;;;;;9.30;99.90;;;;;;5102661;27;19935;-79
2023/12/21 04:02:06;;;;;;;;;;;9.30;99.90;;;;;;5116884;27;20016;-79
2023/12/21 04:04:32;;;;;;;;;;;9.30;99.90;;;;;;5075691;27;20046;-79
2023/12/21 04:07:00;;;;;;;;;;;9.30;99.90;;;;;;5130148;27;19923;-80
2023/12/21 04:09:26;;;;;;;;;;;9.30;99.90;;;;;;5132257;27;19987;-79
2023/12/21 04:11:52;;;;;;;;;;;9.30;99.90;;;;;;5080459;27;20467;-79
2023/12/21 04:14:17;;;;;;;;;;;9.30;99.90;;;;;;5100829;27;20671;-80
2023/12/21 04:16:43;;;;;;;;;;;9.30;99.90;;;;;;5110377;27;20905;-79
2023/12/21 04:19:09;;;;;;;;;;;9.30;99.90;;;;;;5102753;27;20370;-80
2023/12/21 04:21:34;;;;;;;;;;;9.30;99.90;;;;;;5111934;27;19928;-79
2023/12/21 04:24:00;;;;;;;;;;;9.30;99.90;;;;;;5106567;27;20289;-79
2023/12/21 04:26:25;;;;;;;;;;;9.30;99.90;;;;;;5108551;27;19923;-78
2023/12/21 04:28:52;;;;;;;;;;;9.30;99.90;;;;;;5098413;27;19931;-79
2023/12/21 04:31:23;;;;;;;;;;;9.30;99.90;;;;;;5108110;27;19988;-79
2023/12/21 04:33:49;;;;;;;;;;;9.30;99.90;;;;;;5110917;27;19927;-79
2023/12/21 04:36:16;;;;;;;;;;;9.30;99.90;;;;;;5098893;27;20022;-79
2023/12/21 04:38:41;;;;;;;;;;;9.40;99.90;;;;;;5114973;27;19974;-79
2023/12/21 04:41:07;;;;;;;;;;;9.40;99.90;;;;;;5101481;27;20013;-78
2023/12/21 04:43:34;;;;;;;;;;;9.40;99.90;;;;;;5096479;27;20764;-79
2023/12/21 04:46:00;;;;;;;;;;;9.40;99.90;;;;;;5113967;27;20887;-78
2023/12/21 04:48:25;;;;;;;;;;;8.30;99.90;;;;;;5091351;27;19926;-79
2023/12/21 04:50:51;;;;;;;;;;;9.40;99.90;;;;;;5098922;27;20017;-78
2023/12/21 04:53:17;;;;;;;;;;;9.40;99.90;;;;;;5092269;27;19971;-78
2023/12/21 04:55:42;;;;;;;;;;;9.50;99.90;;;;;;5115513;27;20373;-78
2023/12/21 04:58:08;;;;;;;;;;;9.50;99.90;;;;;;5106296;27;20766;-77
2023/12/21 05:00:34;;;;;;;;;;;9.50;99.90;;;;;;5127976;27;19976;-78
2023/12/21 05:02:59;;;;;;;;;;;9.50;99.90;;;;;;5109628;27;19923;-78
2023/12/21 05:05:25;;;;;;;;;;;9.50;99.90;;;;;;5115188;27;19934;-79
2023/12/21 05:07:53;;;;;;;;;;;9.60;99.90;;;;;;5108192;27;19932;-78
2023/12/21 05:10:18;;;;;;;;;;;9.60;99.90;;;;;;5090778;27;19931;-78
2023/12/21 05:12:44;;;;;;;;;;;9.60;99.90;;;;;;5111186;27;19971;-78
2023/12/21 05:15:13;;;;;;;;;;;10.70;99.90;;;;;;5115247;27;19968;-78
2023/12/21 05:17:40;;;;;;;;;;;9.60;99.90;;;;;;5104221;27;19931;-78
2023/12/21 05:20:07;;;;;;;;;;;9.60;99.90;;;;;;5097349;27;19923;-77
2023/12/21 05:22:33;;;;;;;;;;;9.50;99.90;;;;;;5096349;27;20357;-78
2023/12/21 05:24:58;;;;;;;;;;;9.70;99.90;;;;;;5097905;27;19931;-78
2023/12/21 05:27:24;;;;;;;;;;;9.70;99.90;;;;;;5109479;27;19958;-79
2023/12/21 05:29:50;;;;;;;;;;;9.70;99.90;;;;;;5105992;27;20431;-79
2023/12/21 05:32:15;;;;;;;;;;;9.70;99.90;;;;;;5099992;27;19934;-78
2023/12/21 05:34:41;;;;;;;;;;;9.70;99.90;;;;;;5101673;27;19935;-77
2023/12/21 05:37:06;;;;;;;;;;;9.70;99.90;;;;;;5100606;27;20006;-78
2023/12/21 05:39:32;;;;;;;;;;;9.70;99.90;;;;;;5091412;27;19932;-78
2023/12/21 05:41:58;;;;;;;;;;;9.70;99.90;;;;;;5099594;27;20072;-78
2023/12/21 05:44:23;;;;;;;;;;;9.70;99.90;;;;;;5110452;27;19928;-78
2023/12/21 05:46:50;;;;;;;;;;;9.70;99.90;;;;;;5106820;27;19927;-78
2023/12/21 05:49:16;;;;;;;;;;;9.70;99.90;;;;;;5111992;27;20815;-78
2023/12/21 05:51:42;;;;;;;;;;;9.60;99.90;;;;;;5109958;27;20381;-78
2023/12/21 05:54:07;;;;;;;;;;;9.60;99.90;;;;;;5103564;27;19924;-78
2023/12/21 05:56:36;;;;;;;;;;;9.50;99.90;;;;;;5112293;27;20385;-79
2023/12/21 05:59:02;;;;;;;;;;;9.50;99.90;;;;;;5094223;27;21982;-79
2023/12/21 06:01:27;;;;;;;;;;;9.50;99.90;;;;;;5089919;27;19934;-78
2023/12/21 06:03:53;;;;;;;;;;;9.50;99.90;;;;;;5102372;27;19927;-80
2023/12/21 06:06:18;;;;;;;;;;;9.40;99.90;;;;;;5091023;27;19928;-79
2023/12/21 06:08:47;;;;;;;;;;;9.40;99.90;;;;;;5111245;27;19924;-78
2023/12/21 06:11:12;;;;;;;;;;;9.40;99.90;;;;;;5115568;27;19938;-79
2023/12/21 06:13:38;;;;;;;;;;;9.30;99.90;;;;;;5105113;27;19927;-78
2023/12/21 06:16:04;;;;;;;;;;;9.30;99.90;;;;;;5107732;27;19934;-78
2023/12/21 06:18:30;;;;;;;;;;;9.20;99.90;;;;;;5090594;27;19937;-78
2023/12/21 06:20:55;;;;;;;;;;;9.20;99.90;;;;;;5073431;27;19927;-78
2023/12/21 06:23:21;;;;;;;;;;;9.20;99.90;;;;;;5106689;27;20400;-78
2023/12/21 06:25:47;;;;;;;;;;;9.20;99.90;;;;;;5111963;27;20009;-78
2023/12/21 06:28:12;;;;;;;;;;;9.10;99.90;;;;;;5116705;27;20284;-79
2023/12/21 06:30:38;;;;;;;;;;;9.10;99.90;;;;;;5110226;27;19923;-78
2023/12/21 06:33:03;;;;;;;;;;;9.00;99.90;;;;;;5094857;27;19928;-79
2023/12/21 06:35:29;;;;;;;;;;;9.00;99.90;;;;;;5110435;27;20051;-79
2023/12/21 06:37:54;;;;;;;;;;;9.00;99.90;;;;;;5100160;27;19924;-79
2023/12/21 06:40:20;;;;;;;;;;;8.90;99.90;;;;;;5108696;27;20732;-79
2023/12/21 06:42:46;;;;;;;;;;;8.90;99.90;;;;;;5106141;27;19931;-79
2023/12/21 06:45:11;;;;;;;;;;;8.90;99.90;;;;;;5093574;27;19986;-79
2023/12/21 06:47:37;;;;;;;;;;;8.90;99.90;;;;;;5114422;27;20883;-79
2023/12/21 06:50:03;;;;;;;;;;;8.90;99.90;;;;;;5127684;27;20002;-80
2023/12/21 06:52:30;;;;;;;;;;;8.90;99.90;;;;;;5098047;27;20393;-80
2023/12/21 06:54:56;;;;;;;;;;;8.90;99.90;;;;;;5113139;27;20004;-79
2023/12/21 06:57:22;;;;;;;;;;;8.90;99.90;;;;;;5114446;27;19938;-79
2023/12/21 06:59:47;;;;;;;;;;;8.90;99.90;;;;;;5098413;27;19928;-80
2023/12/21 07:02:13;;;;;;;;;;;8.90;99.90;;;;;;5103355;27;19989;-79
2023/12/21 07:04:38;;;;;;;;;;;9.00;99.90;;;;;;5114095;27;19931;-79
2023/12/21 07:07:06;;;;;;;;;;;9.00;99.90;;;;;;5107099;27;21303;-78
2023/12/21 07:09:32;;;;;;;;;;;9.10;99.90;;;;;;5112022;27;20039;-80
2023/12/21 07:11:59;;;;;;;;;;;9.10;99.90;;;;;;5102181;27;19930;-79
2023/12/21 07:14:25;;;;;;;;;;;9.10;99.90;;;;;;5132270;27;19931;-79
2023/12/21 07:16:51;;;;;;;;;;;9.20;99.90;;;;;;5118038;27;19928;-80
2023/12/21 07:19:17;;;;;;;;;;;9.20;99.90;;;;;;5093964;27;20582;-80
2023/12/21 07:21:43;;;;;;;;;;;9.20;99.90;;;;;;5103158;27;19975;-79
2023/12/21 07:24:09;;;;;;;;;;;9.30;99.90;;;;;;5086932;27;20397;-79
2023/12/21 07:26:35;;;;;;;;;;;9.30;99.90;;;;;;5107706;27;19934;-79
2023/12/21 07:29:00;;;;;;;;;;;9.30;99.90;;;;;;5076866;27;19931;-80
2023/12/21 07:31:26;;;;;;;;;;;9.40;99.90;;;;;;5117184;27;19973;-80
2023/12/21 07:33:51;;;;;;;;;;;9.40;99.90;;;;;;5137395;27;20448;-79
2023/12/21 07:36:17;;;;;;;;;;;9.50;99.90;;;;;;5102979;27;20014;-79
2023/12/21 07:38:43;;;;;;;;;;;9.60;99.90;;;;;;5122100;27;20266;-79
2023/12/21 07:41:08;;;;;;;;;;;9.60;99.90;;;;;;5090851;27;19966;-79
2023/12/21 07:43:34;;;;;;;;;;;9.70;99.90;;;;;;5107530;27;19953;-79
2023/12/21 07:45:59;;;;;;;;;;;9.70;99.90;;;;;;5108937;27;19931;-79
2023/12/21 07:48:25;;;;;;;;;;;9.70;99.90;;;;;;5107976;27;20325;-79
2023/12/21 07:50:51;;;;;;;;;;;9.80;99.90;;;;;;5092220;27;19939;-79
2023/12/21 07:53:16;;;;;;;;;;;9.80;99.90;;;;;;5113448;27;20994;-79
2023/12/21 07:55:42;;;;;;;;;;;9.80;99.90;;;;;;5112790;27;19931;-78
2023/12/21 07:58:07;;;;;;;;;;;9.80;99.90;;;;;;5111258;27;19927;-79
2023/12/21 08:00:33;;;;;;;;;;;9.90;99.90;;;;;;5108385;27;20940;-78
2023/12/21 08:02:59;;;;;;;;;;;9.90;99.90;;;;;;5115006;27;20117;-78
2023/12/21 08:05:24;;;;;;;;;;;9.90;99.90;;;;;;5117868;27;19924;-78
2023/12/21 08:07:50;;;;;;;;;;;9.90;99.90;;;;;;5114349;27;19928;-78
2023/12/21 08:10:19;;;;;;;;;;;9.90;99.90;;;;;;5107855;27;20032;-77
2023/12/21 08:12:45;;;;;;;;;;;9.90;99.90;;;;;;5105248;27;20324;-78
2023/12/21 08:15:10;;;;;;;;;;;9.90;99.90;;;;;;5114034;27;20108;-77
2023/12/21 08:17:36;;;;;;;;;;;10.00;99.90;;;;;;5108394;27;20309;-77
2023/12/21 08:20:05;;;;;;;;;;;10.00;99.90;;;;;;5102446;27;19927;-78
2023/12/21 08:22:31;;;;;;;;;;;10.00;99.90;;;;;;5092877;27;19988;-78
2023/12/21 08:24:57;;;;;;;;;;;10.00;99.90;;;;;;5077833;27;19931;-77
2023/12/21 08:27:26;;;;;;;;;;;9.90;99.90;;;;;;5108050;27;19927;-77
2023/12/21 08:29:52;;;;;;;;;;;9.90;99.90;;;;;;5119059;27;20511;-79
2023/12/21 08:32:18;;;;;;;;;;;9.90;99.90;;;;;;5108104;27;19937;-79
2023/12/21 08:34:44;;;;;;;;;;;9.90;99.90;;;;;;5108027;27;19927;-76
2023/12/21 08:37:10;;;;;;;;;;;9.90;99.90;;;;;;5098339;27;20019;-77
2023/12/21 08:39:35;;;;;;;;;;;10.00;99.90;;;;;;5097407;27;19967;-77
2023/12/21 08:42:02;;;;;;;;;;;10.00;99.90;;;;;;5106276;27;20871;-77
2023/12/21 08:44:28;;;;;;;;;;;10.00;99.90;;;;;;5096979;27;19950;-75
2023/12/21 08:46:54;;;;;;;;;;;10.00;99.90;;;;;;5110976;27;20464;-75
2023/12/21 08:49:19;;;;;;;;;;;10.10;99.90;;;;;;5109974;27;20265;-75
2023/12/21 08:51:45;;;;;;;;;;;10.10;99.90;;;;;;5111727;27;20083;-76
2023/12/21 08:54:11;;;;;;;;;;;10.20;99.90;;;;;;5107010;27;19930;-77
2023/12/21 08:56:45;;;;;;;;;;;10.10;99.90;;;;;;5098127;27;19928;-76
2023/12/21 08:59:11;;;;;;;;;;;10.20;99.90;;;;;;5133275;27;19941;-79
2023/12/21 09:01:37;;;;;;;;;;;9.50;99.90;;;;;;5109828;27;19928;-78
2023/12/21 09:04:04;;;;;;;;;;;10.20;99.90;;;;;;5100324;27;20341;-83
2023/12/21 09:06:31;;;;;;;;;;;10.30;99.90;;;;;;5108199;27;20026;-79
2023/12/21 09:08:57;;;;;;;;;;;10.30;99.90;;;;;;5103738;27;20400;-83
2023/12/21 09:11:23;;;;;;;;;;;10.40;99.90;;;;;;5097092;27;19932;-76
2023/12/21 09:13:48;;;;;;;;;;;10.30;99.90;;;;;;5132965;27;19931;-76
2023/12/21 09:16:17;;;;;;;;;;;10.30;99.90;;;;;;5100811;27;19923;-79
2023/12/21 09:18:43;;;;;;;;;;;10.40;99.90;;;;;;5112463;27;19975;-80
2023/12/21 09:21:09;;;;;;;;;;;10.40;99.90;;;;;;5115517;27;19976;-80
2023/12/21 09:23:35;;;;;;;;;;;10.50;99.90;;;;;;5112718;27;19927;-79
2023/12/21 09:26:00;;;;;;;;;;;10.50;99.90;;;;;;5111093;27;20385;-78
2023/12/21 09:28:26;;;;;;;;;;;10.50;99.90;;;;;;5101013;27;20405;-77
2023/12/21 09:30:51;;;;;;;;;;;10.50;99.90;;;;;;5110233;27;19929;-77
2023/12/21 09:33:18;;;;;;;;;;;10.60;99.90;;;;;;5107755;27;20312;-76
2023/12/21 09:35:44;;;;;;;;;;;10.50;99.90;;;;;;5107104;27;20686;-77
2023/12/21 09:38:10;;;;;;;;;;;10.60;99.90;;;;;;5113447;27;20017;-77
2023/12/21 09:40:38;;;;;;;;;;;10.60;99.90;;;;;;5136115;27;20096;-77
2023/12/21 09:43:05;;;;;;;;;;;10.60;99.90;;;;;;5119919;27;20049;-78
2023/12/21 09:45:32;;;;;;;;;;;10.60;99.90;;;;;;5091356;27;20294;-79
2023/12/21 09:47:58;;;;;;;;;;;10.60;99.90;;;;;;5095807;27;19931;-78
2023/12/21 09:50:25;;;;;;;;;;;10.70;99.90;;;;;;5095556;27;19934;-81
2023/12/21 09:52:51;;;;;;;;;;;10.70;99.90;;;;;;5101991;27;19977;-80
2023/12/21 09:55:17;;;;;;;;;;;10.70;99.90;;;;;;5117871;27;19969;-79
2023/12/21 09:57:43;;;;;;;;;;;10.80;99.90;;;;;;5106294;27;19923;-78
2023/12/21 10:00:09;;;;;;;;;;;11.30;99.90;;;;;;5106999;27;19931;-78
2023/12/21 10:02:35;;;;;;;;;;;10.70;99.90;;;;;;5120684;27;20392;-79
2023/12/21 10:05:03;;;;;;;;;;;10.70;99.90;;;;;;5107792;27;20382;-81
2023/12/21 10:07:29;;;;;;;;;;;10.70;99.90;;;;;;5113742;27;20019;-82
2023/12/21 10:09:55;;;;;;;;;;;10.80;99.90;;;;;;5113841;27;19981;-79
2023/12/21 10:12:20;;;;;;;;;;;10.80;99.90;;;;;;5099685;27;20009;-78
2023/12/21 10:14:55;;;;;;;;;;;10.80;99.90;;;;;;5113603;27;20277;-79
2023/12/21 10:17:21;;;;;;;;;;;10.80;99.90;;;;;;5088709;27;20368;-80
2023/12/21 10:19:47;;;;;;;;;;;10.80;99.90;;;;;;5104059;27;20005;-79
2023/12/21 10:22:12;;;;;;;;;;;10.80;99.90;;;;;;5118459;27;19927;-77
2023/12/21 10:24:38;;;;;;;;;;;10.80;99.90;;;;;;5118482;27;20441;-80
2023/12/21 10:27:10;;;;;;;;;;;10.70;99.90;;;;;;5102414;27;19931;-77
2023/12/21 10:29:36;;;;;;;;;;;10.80;99.90;;;;;;5100496;27;19931;-77
2023/12/21 10:32:03;;;;;;;;;;;10.80;99.90;;;;;;5099194;27;19927;-77
2023/12/21 10:34:28;;;;;;;;;;;10.70;99.90;;;;;;5120255;27;19930;-79
2023/12/21 10:36:56;;;;;;;;;;;10.80;99.90;;;;;;5112730;27;19927;-81
2023/12/21 10:39:22;;;;;;;;;;;10.90;99.90;;;;;;5118026;27;19996;-78
2023/12/21 10:41:47;;;;;;;;;;;10.90;99.90;;;;;;5109573;27;19927;-80
2023/12/21 10:44:14;;;;;;;;;;;10.80;99.90;;;;;;5111793;27;19927;-77
2023/12/21 10:46:41;;;;;;;;;;;10.80;99.90;;;;;;5119976;27;19938;-78
2023/12/21 10:49:10;;;;;;;;;;;10.70;99.90;;;;;;5116754;27;19931;-76
2023/12/21 10:51:37;;;;;;;;;;;10.70;99.90;;;;;;5113351;27;19971;-76
2023/12/21 10:54:05;;;;;;;;;;;10.70;99.90;;;;;;5125239;27;19934;-76
2023/12/21 10:56:31;;;;;;;;;;;10.70;99.90;;;;;;5093187;27;19939;-77
2023/12/21 10:59:01;;;;;;;;;;;10.70;99.90;;;;;;5099177;27;19927;-79
2023/12/21 11:01:27;;;;;;;;;;;10.70;99.90;;;;;;5105961;27;19927;-78
2023/12/21 11:03:53;;;;;;;;;;;10.70;99.90;;;;;;5108771;27;19934;-76
2023/12/21 11:06:19;;;;;;;;;;;10.80;99.90;;;;;;5103494;27;19972;-77
2023/12/21 11:08:45;;;;;;;;;;;10.80;99.90;;;;;;5115056;27;20016;-77
2023/12/21 11:11:22;;;;;;;;;;;10.90;99.90;;;;;;5134359;27;19923;-77
2023/12/21 11:13:55;;;;;;;;;;;10.90;99.90;;;;;;5132888;27;20049;-77
2023/12/21 11:16:24;;;;;;;;;;;11.00;99.90;;;;;;5113059;27;19923;-77
2023/12/21 11:18:51;;;;;;;;;;;11.00;99.90;;;;;;5115944;27;19958;-77
2023/12/21 11:21:26;;;;;;;;;;;11.10;99.90;;;;;;5110124;27;20325;-77
2023/12/21 11:23:52;;;;;;;;;;;11.00;99.90;;;;;;5102562;27;19928;-78
2023/12/21 11:26:21;;;;;;;;;;;11.00;99.90;;;;;;5113666;27;19996;-78
2023/12/21 11:28:47;;;;;;;;;;;11.00;99.90;;;;;;5130918;27;19931;-78
2023/12/21 11:31:14;;;;;;;;;;;11.00;99.90;;;;;;5095347;27;19927;-78
2023/12/21 11:33:40;;;;;;;;;;;11.00;99.90;;;;;;5114307;27;19976;-77
2023/12/21 11:36:06;;;;;;;;;;;11.20;99.90;;;;;;5083155;27;19927;-77
2023/12/21 11:38:47;;;;;;;;;;;11.20;99.90;;;;;;5094414;27;19962;-78
2023/12/21 11:41:15;;;;;;;;;;;11.10;99.90;;;;;;5109316;27;20013;-78
2023/12/21 11:43:51;;;;;;;;;;;11.10;99.90;;;;;;5101031;27;20405;-77
2023/12/21 11:46:17;;;;;;;;;;;11.10;99.90;;;;;;5109901;27;20342;-77
2023/12/21 11:48:43;;;;;;;;;;;11.20;99.90;;;;;;5112180;27;19927;-77
2023/12/21 11:51:09;;;;;;;;;;;11.20;99.90;;;;;;5090511;27;19927;-75
2023/12/21 11:53:38;;;;;;;;;;;11.20;99.90;;;;;;5117493;27;19975;-75
2023/12/21 11:56:11;;;;;;;;;;;11.10;99.90;;;;;;5100939;27;19926;-77
2023/12/21 11:58:39;;;;;;;;;;;11.10;99.90;;;;;;5101325;27;19976;-76
2023/12/21 12:01:04;;;;;;;;;;;11.10;99.90;;;;;;5111043;27;19931;-77
2023/12/21 12:03:31;;;;;;;;;;;11.10;99.90;;;;;;5113358;27;20008;-77
2023/12/21 12:06:00;;;;;;;;;;;11.10;99.90;;;;;;5116484;27;20377;-78
2023/12/21 12:08:26;;;;;;;;;;;11.10;99.90;;;;;;5120337;27;20157;-80
2023/12/21 12:10:52;;;;;;;;;;;11.20;99.90;;;;;;5119746;27;20385;-79
2023/12/21 12:13:19;;;;;;;;;;;11.20;99.90;;;;;;5101741;27;19991;-77
2023/12/21 12:15:48;;;;;;;;;;;11.30;99.90;;;;;;5103712;27;20377;-79
2023/12/21 12:18:14;;;;;;;;;;;11.30;99.90;;;;;;5099269;27;19931;-77
2023/12/21 12:20:44;;;;;;;;;;;11.20;99.90;;;;;;5114419;27;19935;-77
2023/12/21 12:23:10;;;;;;;;;;;11.10;99.90;;;;;;5106168;27;19927;-79
2023/12/21 12:25:36;;;;;;;;;;;11.10;99.90;;;;;;5107315;27;20452;-76
2023/12/21 12:28:03;;;;;;;;;;;11.10;99.90;;;;;;5122591;27;20007;-76
2023/12/21 12:30:29;;;;;;;;;;;11.00;99.90;;;;;;5112503;27;19934;-78
2023/12/21 12:32:55;;;;;;;;;;;11.00;99.90;;;;;;5117986;27;19927;-78
2023/12/21 12:35:21;;;;;;;;;;;11.00;99.90;;;;;;5118331;27;19973;-79
2023/12/21 12:37:51;;;;;;;;;;;11.00;99.90;;;;;;5118840;27;20381;-77
2023/12/21 12:40:16;;;;;;;;;;;11.00;99.90;;;;;;5117679;27;19962;-78
2023/12/21 12:42:42;;;;;;;;;;;10.30;99.90;;;;;;5118884;27;20361;-76
2023/12/21 12:45:11;;;;;;;;;;;11.00;99.90;;;;;;5114467;27;20378;-80
2023/12/21 12:47:39;;;;;;;;;;;11.00;99.90;;;;;;5111666;27;19927;-78
2023/12/21 12:50:05;;;;;;;;;;;11.00;99.90;;;;;;5115987;27;19928;-79
2023/12/21 12:52:30;;;;;;;;;;;11.00;99.90;;;;;;5117974;27;19927;-80
2023/12/21 12:54:59;;;;;;;;;;;11.00;99.90;;;;;;5127295;27;19923;-78
2023/12/21 12:57:28;;;;;;;;;;;11.00;99.90;;;;;;5116170;27;19927;-77
2023/12/21 12:59:58;;;;;;;;;;;11.00;99.90;;;;;;5116632;27;19923;-77
2023/12/21 13:02:24;;;;;;;;;;;11.00;99.90;;;;;;5119173;27;19927;-77
2023/12/21 13:04:51;;;;;;;;;;;10.90;99.90;;;;;;5119297;27;20501;-78
2023/12/21 13:07:17;;;;;;;;;;;10.90;99.90;;;;;;5097067;27;19988;-78
2023/12/21 13:09:43;;;;;;;;;;;10.80;99.90;;;;;;5117148;27;19923;-80
2023/12/21 13:12:08;;;;;;;;;;;10.80;99.90;;;;;;5120076;27;20638;-87
2023/12/21 13:14:34;;;;;;;;;;;10.80;99.90;;;;;;5107534;27;19927;-81
2023/12/21 13:17:00;;;;;;;;;;;10.80;99.90;;;;;;5114217;27;19972;-84
2023/12/21 13:19:27;;;;;;;;;;;10.70;99.90;;;;;;5113370;27;20214;-79
2023/12/21 13:21:53;;;;;;;;;;;10.70;99.90;;;;;;5107824;27;19931;-80
2023/12/21 13:24:19;;;;;;;;;;;10.70;99.90;;;;;;5117144;27;19931;-78
2023/12/21 13:26:46;;;;;;;;;;;10.70;99.90;;;;;;5115239;27;19933;-79
2023/12/21 13:29:11;;;;;;;;;;;10.70;99.90;;;;;;5116078;27;19949;-80
2023/12/21 13:31:37;;;;;;;;;;;10.60;99.90;;;;;;5112541;27;20366;-77
2023/12/21 13:34:03;;;;;;;;;;;10.60;99.90;;;;;;5115843;27;19929;-81
2023/12/21 13:36:29;;;;;;;;;;;10.60;99.90;;;;;;5117350;27;19981;-79
2023/12/21 13:38:56;;;;;;;;;;;10.60;99.90;;;;;;5114256;27;19930;-79
2023/12/21 13:41:22;;;;;;;;;;;10.60;99.90;;;;;;5089875;27;19977;-81
2023/12/21 13:43:48;;;;;;;;;;;10.60;99.90;;;;;;5111392;27;20766;-79
2023/12/21 13:46:13;;;;;;;;;;;10.60;99.90;;;;;;5102228;27;19927;-78
2023/12/21 13:48:39;;;;;;;;;;;10.50;99.90;;;;;;5116952;27;20002;-79
2023/12/21 13:51:05;;;;;;;;;;;10.50;99.90;;;;;;5120567;27;19930;-79
2023/12/21 13:53:31;;;;;;;;;;;10.50;99.90;;;;;;5103664;27;19933;-78
2023/12/21 13:55:57;;;;;;;;;;;10.40;99.90;;;;;;5113033;27;20307;-78
2023/12/21 13:58:22;;;;;;;;;;;10.40;99.90;;;;;;5084651;27;20021;-77
2023/12/21 14:00:49;;;;;;;;;;;10.40;99.90;;;;;;5116946;27;19930;-77
2023/12/21 14:03:16;;;;;;;;;;;10.40;99.90;;;;;;5109115;27;19999;-77
2023/12/21 14:05:42;;;;;;;;;;;10.40;99.90;;;;;;5103703;27;20115;-77
2023/12/21 14:08:07;;;;;;;;;;;11.10;99.90;;;;;;5102868;27;20330;-76
2023/12/21 14:10:34;;;;;;;;;;;10.10;99.90;;;;;;5100996;27;20009;-77
2023/12/21 14:13:00;;;;;;;;;;;9.70;99.90;;;;;;5117293;27;19923;-80
2023/12/21 14:15:27;;;;;;;;;;;9.30;99.90;;;;;;5100198;27;20035;-77
2023/12/21 14:17:53;;;;;;;;;;;9.00;99.90;;;;;;5131333;27;20097;-76